This is the latest recevied weather packets stored in our database for station/object HA6IFZ-10. If no packets are shown the sender has not sent any weather packets the latest 10 day(s).
| Time | Temp. | Humidity | Pressure | Rain* | Wind** | Luminosity | Snow |
|---|---|---|---|---|---|---|---|
| 1777571255 | 10° C | 32% | 1033.6 hPa | - | - | - | - |
| 1777567597 | 12.78° C | 23% | 1033.2 hPa | - | - | - | - |
| 1777566697 | 13.33° C | 24% | 1033.2 hPa | - | - | - | - |
| 1777565797 | 13.33° C | 23% | 1033.1 hPa | - | - | - | - |
| 1777564897 | 13.33° C | 22% | 1032.9 hPa | - | - | - | - |
| 1777558911 | 13.33° C | 22% | 1033.3 hPa | - | - | - | - |
| 1777558011 | 14.44° C | 21% | 1033.3 hPa | - | - | - | - |
| 1777557111 | 13.89° C | 22% | 1033.6 hPa | - | - | - | - |
| 1777556211 | 13.33° C | 21% | 1033.6 hPa | - | - | - | - |
| 1777555310 | 13.33° C | 22% | 1033.8 hPa | - | - | - | - |
| 1777554410 | 13.33° C | 22% | 1034 hPa | - | - | - | - |
| 1777553510 | 13.33° C | 25% | 1034 hPa | - | - | - | - |
| 1777552508 | 12.78° C | 23% | 1034 hPa | - | - | - | - |
| 1777551608 | 13.33° C | 23% | 1034.4 hPa | - | - | - | - |
| 1777550708 | 12.78° C | 23% | 1034.5 hPa | - | - | - | - |
| 1777549808 | 12.78° C | 23% | 1034.7 hPa | - | - | - | - |
| 1777548908 | 12.78° C | 23% | 1034.7 hPa | - | - | - | - |
| 1777548007 | 12.78° C | 24% | 1034.8 hPa | - | - | - | - |
| 1777547107 | 12.22° C | 24% | 1034.9 hPa | - | - | - | - |
| 1777546207 | 11.67° C | 25% | 1035 hPa | - | - | - | - |
| 1777545307 | 12.22° C | 26% | 1035.2 hPa | - | - | - | - |
| 1777544407 | 11.67° C | 25% | 1035.3 hPa | - | - | - | - |
| 1777543507 | 11.67° C | 25% | 1035.3 hPa | - | - | - | - |
| 1777541890 | 10.56° C | 28% | 1035.4 hPa | - | - | - | - |
| 1777540989 | 10.56° C | 28% | 1035.3 hPa | - | - | - | - |
* Rain since midnight (hover to see other rain measurements)
** Current wind speed in m/s (hover to see current wind gust speed)